createdAt,value
2023-04-28T00:04:17.046Z,8.82
2023-04-28T00:09:18.985Z,9.20
2023-04-28T00:14:20.501Z,8.02
2023-04-28T00:19:22.286Z,8.88
2023-04-28T00:24:23.852Z,9.02
2023-04-28T00:29:25.485Z,8.48
2023-04-28T00:34:27.027Z,9.38
2023-04-28T00:39:28.551Z,9.02
2023-04-28T00:44:30.123Z,8.95
2023-04-28T00:49:31.930Z,9.50
2023-04-28T00:54:34.810Z,9.00
2023-04-28T00:59:36.777Z,8.90
2023-04-28T01:04:38.552Z,8.75
2023-04-28T01:09:40.217Z,9.18
2023-04-28T01:14:42.312Z,9.18
2023-04-28T01:19:43.822Z,9.07
2023-04-28T01:24:45.355Z,8.60
2023-04-28T01:29:46.902Z,9.13
2023-04-28T01:34:48.415Z,9.13
2023-04-28T01:39:49.945Z,9.23
2023-04-28T01:44:51.464Z,9.05
2023-04-28T01:49:52.939Z,9.18
2023-04-28T01:54:54.808Z,9.57
2023-04-28T01:59:56.354Z,9.23
2023-04-28T02:04:58.269Z,9.88
2023-04-28T02:09:59.776Z,10.13
2023-04-28T02:15:01.296Z,10.25
2023-04-28T02:20:02.859Z,10.15
2023-04-28T02:25:04.716Z,10.23
2023-04-28T02:30:06.871Z,10.15
2023-04-28T02:35:08.502Z,10.75
2023-04-28T02:40:10.331Z,9.98
2023-04-28T02:45:11.921Z,10.43
2023-04-28T02:50:13.386Z,10.10
2023-04-28T02:55:23.598Z,11.30
2023-04-28T03:00:25.125Z,10.73
2023-04-28T03:05:26.993Z,10.60
2023-04-28T03:10:28.541Z,11.35
2023-04-28T03:15:30.117Z,10.60
2023-04-28T03:20:31.658Z,11.38
2023-04-28T03:25:33.155Z,11.32
2023-04-28T03:30:34.604Z,11.02
2023-04-28T03:35:36.351Z,11.60
2023-04-28T03:40:38.996Z,11.27
2023-04-28T03:45:41.476Z,11.55
2023-04-28T03:50:45.445Z,11.75
2023-04-28T03:55:46.990Z,11.85
2023-04-28T04:00:48.535Z,11.68
2023-04-28T04:05:50.262Z,11.43
2023-04-28T04:10:52.678Z,11.88
2023-04-28T04:15:54.250Z,12.85
2023-04-28T04:20:57.130Z,12.23
2023-04-28T04:25:58.706Z,12.40
2023-04-28T04:31:00.261Z,13.30
2023-04-28T04:36:01.970Z,12.30
2023-04-28T04:41:03.499Z,13.15
2023-04-28T04:46:05.104Z,13.18
2023-04-28T04:51:07.210Z,12.68
2023-04-28T04:56:08.768Z,11.38
2023-04-28T05:01:10.352Z,12.38
2023-04-28T05:06:12.039Z,11.40
2023-04-28T05:11:13.570Z,12.70
2023-04-28T05:16:15.210Z,11.65
2023-04-28T05:21:16.965Z,12.88
2023-04-28T05:26:18.436Z,13.35
2023-04-28T05:31:20.005Z,11.75
2023-04-28T05:36:21.595Z,12.07
2023-04-28T05:41:23.124Z,12.10
2023-04-28T05:46:30.519Z,11.07
2023-04-28T05:51:33.664Z,11.35
2023-04-28T05:56:35.313Z,10.80
2023-04-28T06:01:38.658Z,12.23
2023-04-28T06:06:40.175Z,12.07
2023-04-28T06:11:41.745Z,12.18
2023-04-28T06:16:43.433Z,11.50
2023-04-28T06:21:46.097Z,12.63
2023-04-28T06:26:47.619Z,12.80
2023-04-28T06:31:49.190Z,12.50
2023-04-28T06:36:50.894Z,12.20
2023-04-28T06:41:52.489Z,11.73
2023-04-28T06:46:54.109Z,12.10
2023-04-28T06:51:55.643Z,12.82
2023-04-28T06:56:57.182Z,11.95
2023-04-28T07:01:58.816Z,11.85
2023-04-28T07:07:00.413Z,11.48
2023-04-28T07:12:02.081Z,12.05
2023-04-28T07:17:03.585Z,12.18
2023-04-28T07:22:05.107Z,11.90
2023-04-28T07:27:06.607Z,11.60
2023-04-28T07:32:11.257Z,12.43
2023-04-28T07:37:12.800Z,11.57
2023-04-28T07:42:14.363Z,11.60
2023-04-28T07:47:15.902Z,10.77
2023-04-28T07:52:17.388Z,11.80
2023-04-28T07:57:18.845Z,10.85
2023-04-28T08:02:20.987Z,11.45
2023-04-28T08:07:22.679Z,10.27
2023-04-28T08:12:24.276Z,11.20
2023-04-28T08:17:25.892Z,10.80
2023-04-28T08:22:27.485Z,10.63
2023-04-28T08:27:29.025Z,11.02
2023-04-28T08:32:30.616Z,10.18
2023-04-28T08:37:32.147Z,10.73
2023-04-28T08:42:34.643Z,10.75
2023-04-28T08:47:38.385Z,11.45
2023-04-28T08:52:41.876Z,11.75
2023-04-28T08:57:45.162Z,10.27
2023-04-28T09:02:47.050Z,10.52
2023-04-28T09:07:51.921Z,10.98
2023-04-28T09:12:55.821Z,11.50
2023-04-28T09:17:57.497Z,10.93
2023-04-28T09:23:13.965Z,10.35
2023-04-28T09:28:22.163Z,10.13
2023-04-28T09:33:23.759Z,9.98
2023-04-28T09:38:25.510Z,10.43
2023-04-28T09:43:36.199Z,10.93
2023-04-28T09:48:38.290Z,11.57
2023-04-28T09:53:40.005Z,11.60
2023-04-28T09:58:45.085Z,11.05
2023-04-28T10:03:47.985Z,12.43
2023-04-28T10:08:52.195Z,13.35
2023-04-28T10:13:54.065Z,13.88
2023-04-28T10:18:56.795Z,13.65
2023-04-28T10:24:33.440Z,14.68
2023-04-28T10:29:35.606Z,14.70
2023-04-28T10:34:37.148Z,15.25
2023-04-28T10:39:39.119Z,16.45
2023-04-28T10:44:43.924Z,19.77
2023-04-28T10:49:57.694Z,19.17
2023-04-28T10:55:27.042Z,19.20
2023-04-28T11:00:30.661Z,19.15
2023-04-28T11:05:34.631Z,20.63
2023-04-28T11:11:10.126Z,20.90
2023-04-28T11:16:14.696Z,21.63
2023-04-28T11:21:16.768Z,22.10
2023-04-28T11:26:20.076Z,21.40
2023-04-28T11:31:24.365Z,23.40
2023-04-28T11:36:38.201Z,24.30
2023-04-28T11:41:44.737Z,25.50
2023-04-28T11:46:57.473Z,24.67
2023-04-28T11:52:05.956Z,27.98
2023-04-28T11:57:07.937Z,28.77
2023-04-28T12:02:09.884Z,28.08
2023-04-28T12:07:17.265Z,29.55
2023-04-28T12:12:45.202Z,27.42
2023-04-28T12:17:51.922Z,24.70
2023-04-28T12:22:53.650Z,26.98
2023-04-28T12:28:02.504Z,27.55
2023-04-28T12:33:04.346Z,26.00
2023-04-28T12:38:06.012Z,27.27
2023-04-28T12:43:07.501Z,27.08
2023-04-28T12:48:09.085Z,27.02
2023-04-28T12:53:11.094Z,27.23
2023-04-28T12:58:12.697Z,26.58
2023-04-28T13:03:15.898Z,26.98
2023-04-28T13:08:17.487Z,24.88
2023-04-28T13:13:19.008Z,22.55
2023-04-28T13:18:20.541Z,11.73
2023-04-28T13:23:22.227Z,12.70
2023-04-28T13:28:24.178Z,17.50
2023-04-28T13:33:31.109Z,19.42
2023-04-28T13:38:32.972Z,18.90
2023-04-28T13:43:34.530Z,16.30
2023-04-28T13:48:36.269Z,17.45
2023-04-28T13:53:40.513Z,15.63
2023-04-28T13:58:42.101Z,14.23
2023-04-28T14:03:44.640Z,15.07
2023-04-28T14:08:46.413Z,13.82
2023-04-28T14:13:47.886Z,14.65
2023-04-28T14:18:49.761Z,15.13
2023-04-28T14:23:51.302Z,17.83
2023-04-28T14:28:53.889Z,17.42
2023-04-28T14:33:55.521Z,15.68
2023-04-28T14:38:57.699Z,18.23
2023-04-28T14:43:59.265Z,18.23
2023-04-28T14:49:02.523Z,18.38
2023-04-28T14:54:04.409Z,17.83
2023-04-28T14:59:06.104Z,17.23
2023-04-28T15:04:08.174Z,17.27
2023-04-28T15:09:10.607Z,16.23
2023-04-28T15:14:12.323Z,15.98
2023-04-28T15:19:14.609Z,16.02
2023-04-28T15:24:18.526Z,13.40
2023-04-28T15:29:20.712Z,14.73
2023-04-28T15:34:22.973Z,14.32
2023-04-28T15:39:25.648Z,15.60
2023-04-28T15:44:29.226Z,16.80
2023-04-28T15:49:31.952Z,19.92
2023-04-28T15:54:33.564Z,20.52
2023-04-28T15:59:35.793Z,20.13
2023-04-28T16:04:37.930Z,19.02
2023-04-28T16:09:39.666Z,19.83
2023-04-28T16:14:41.256Z,20.73
2023-04-28T16:19:43.567Z,21.20
2023-04-28T16:24:46.288Z,21.73
2023-04-28T16:29:47.903Z,22.42
2023-04-28T16:34:49.541Z,21.15
2023-04-28T16:39:51.638Z,21.05
2023-04-28T16:44:53.439Z,20.65
2023-04-28T16:49:55.073Z,18.80
2023-04-28T16:54:56.686Z,18.30
2023-04-28T16:59:58.179Z,18.52
2023-04-28T17:04:59.743Z,21.90
2023-04-28T17:10:01.376Z,20.10
2023-04-28T17:15:03.076Z,19.85
2023-04-28T17:20:05.038Z,22.60
2023-04-28T17:25:07.124Z,23.15
2023-04-28T17:30:11.741Z,25.90
2023-04-28T17:35:13.207Z,26.15
2023-04-28T17:40:14.667Z,26.17
2023-04-28T17:45:16.175Z,25.77
2023-04-28T17:50:17.718Z,23.30
2023-04-28T17:55:19.279Z,22.88
2023-04-28T18:00:20.985Z,23.25
2023-04-28T18:05:24.306Z,23.65
2023-04-28T18:10:28.109Z,22.42
2023-04-28T18:15:30.559Z,21.52
2023-04-28T18:20:32.020Z,23.05
2023-04-28T18:25:33.614Z,27.80
2023-04-28T18:30:38.005Z,23.80
2023-04-28T18:35:39.951Z,21.55
2023-04-28T18:40:41.494Z,22.88
2023-04-28T18:45:43.874Z,20.60
2023-04-28T18:50:48.468Z,20.75
2023-04-28T18:55:50.115Z,22.33
2023-04-28T19:00:52.508Z,22.50
2023-04-28T19:05:54.182Z,23.88
2023-04-28T19:11:00.297Z,21.13
2023-04-28T19:16:02.092Z,22.10
2023-04-28T19:21:04.766Z,21.17
2023-04-28T19:26:07.695Z,18.17
2023-04-28T19:31:09.383Z,18.73
2023-04-28T19:36:10.900Z,18.42
2023-04-28T19:41:12.435Z,18.27
2023-04-28T19:46:15.093Z,16.25
2023-04-28T19:51:16.883Z,16.55
2023-04-28T19:56:18.456Z,14.75
2023-04-28T20:01:20.042Z,14.73
2023-04-28T20:06:22.247Z,13.25
2023-04-28T20:11:24.717Z,13.68
2023-04-28T20:16:27.074Z,14.50
2023-04-28T20:21:28.622Z,13.70
2023-04-28T20:26:31.204Z,13.98
2023-04-28T20:31:33.099Z,14.15
2023-04-28T20:36:34.697Z,16.15
2023-04-28T20:41:36.788Z,15.18
2023-04-28T20:46:38.381Z,16.55
2023-04-28T20:51:45.300Z,17.20
2023-04-28T20:56:46.796Z,18.27
2023-04-28T21:01:48.713Z,20.75
2023-04-28T21:06:51.681Z,20.98
2023-04-28T21:11:53.138Z,21.17
2023-04-28T21:16:54.770Z,20.80
2023-04-28T21:21:57.068Z,20.95
2023-04-28T21:26:59.560Z,20.40
2023-04-28T21:32:01.171Z,21.90
2023-04-28T21:37:02.734Z,20.58
2023-04-28T21:42:04.760Z,20.80
2023-04-28T21:47:09.487Z,20.45
2023-04-28T21:52:10.972Z,21.50
2023-04-28T21:57:12.509Z,22.48
2023-04-28T22:02:14.175Z,22.48
2023-04-28T22:07:16.231Z,23.10
2023-04-28T22:12:18.696Z,22.23
2023-04-28T22:17:20.283Z,21.60
2023-04-28T22:22:21.940Z,22.05
2023-04-28T22:27:23.488Z,23.42
2023-04-28T22:32:26.537Z,23.73
2023-04-28T22:37:28.184Z,20.45
2023-04-28T22:42:29.727Z,21.25
2023-04-28T22:47:31.511Z,18.92
2023-04-28T22:52:34.168Z,18.23
2023-04-28T22:57:36.529Z,19.38
2023-04-28T23:02:38.187Z,16.70
2023-04-28T23:07:39.824Z,17.75
2023-04-28T23:12:41.365Z,18.42
2023-04-28T23:17:43.309Z,17.05
2023-04-28T23:22:44.883Z,16.95
2023-04-28T23:27:46.553Z,16.00
2023-04-28T23:32:48.076Z,15.80
2023-04-28T23:37:49.550Z,15.02
2023-04-28T23:42:51.059Z,16.52
2023-04-28T23:47:53.376Z,16.38
2023-04-28T23:52:54.974Z,15.77
2023-04-28T23:57:56.490Z,14.82
